createdAt,value
2018-10-21T00:01:04.653Z,23.60
2018-10-21T00:03:33.012Z,22.63
2018-10-21T00:06:01.321Z,22.00
2018-10-21T00:08:29.766Z,21.83
2018-10-21T00:10:58.129Z,21.80
2018-10-21T00:13:26.544Z,19.83
2018-10-21T00:15:54.902Z,20.70
2018-10-21T00:18:23.283Z,18.90
2018-10-21T00:20:51.627Z,20.23
2018-10-21T00:23:19.956Z,20.67
2018-10-21T00:25:48.328Z,20.60
2018-10-21T00:28:16.702Z,21.93
2018-10-21T00:30:45.133Z,23.30
2018-10-21T00:33:13.573Z,24.50
2018-10-21T00:35:41.893Z,23.90
2018-10-21T00:38:10.253Z,23.87
2018-10-21T00:40:38.579Z,22.93
2018-10-21T00:43:07.000Z,24.90
2018-10-21T00:45:35.335Z,23.03
2018-10-21T00:48:03.654Z,22.77
2018-10-21T00:50:32.075Z,21.73
2018-10-21T00:53:00.414Z,23.37
2018-10-21T00:55:28.793Z,21.60
2018-10-21T00:57:57.128Z,20.03
2018-10-21T01:00:25.481Z,22.73
2018-10-21T01:02:54.161Z,24.30
2018-10-21T01:05:22.568Z,20.80
2018-10-21T01:07:50.974Z,22.20
2018-10-21T01:10:19.405Z,21.27
2018-10-21T01:12:47.840Z,21.90
2018-10-21T01:15:16.412Z,21.30
2018-10-21T01:17:44.737Z,21.20
2018-10-21T01:20:13.244Z,20.13
2018-10-21T01:22:42.259Z,20.33
2018-10-21T01:25:11.076Z,21.67
2018-10-21T01:27:40.682Z,20.40
2018-10-21T01:30:10.207Z,21.40
2018-10-21T01:32:38.588Z,21.90
2018-10-21T01:35:07.928Z,23.50
2018-10-21T01:37:36.419Z,22.70
2018-10-21T01:40:45.426Z,22.67
2018-10-21T01:43:15.205Z,22.40
2018-10-21T01:45:43.689Z,22.60
2018-10-21T01:48:13.238Z,21.90
2018-10-21T01:50:41.624Z,21.00
2018-10-21T01:53:11.127Z,22.57
2018-10-21T01:55:39.593Z,22.20
2018-10-21T01:58:08.136Z,20.70
2018-10-21T02:00:36.900Z,20.97
2018-10-21T02:03:05.587Z,18.87
2018-10-21T02:05:34.552Z,20.77
2018-10-21T02:08:02.945Z,21.50
2018-10-21T02:10:31.357Z,19.77
2018-10-21T02:12:59.703Z,21.93
2018-10-21T02:15:28.049Z,20.53
2018-10-21T02:17:56.413Z,19.90
2018-10-21T02:20:25.203Z,22.83
2018-10-21T02:22:53.727Z,21.13
2018-10-21T02:25:22.127Z,20.07
2018-10-21T02:27:51.222Z,19.50
2018-10-21T02:30:22.589Z,20.63
2018-10-21T02:32:51.665Z,21.97
2018-10-21T02:35:20.413Z,20.67
2018-10-21T02:37:49.145Z,21.10
2018-10-21T02:41:45.187Z,23.20
2018-10-21T02:44:20.805Z,20.53
2018-10-21T02:46:50.450Z,22.67
2018-10-21T02:49:19.398Z,21.80
2018-10-21T02:51:53.011Z,20.33
2018-10-21T02:54:25.297Z,21.10
2018-10-21T02:56:53.922Z,19.43
2018-10-21T02:59:22.742Z,18.57
2018-10-21T03:01:51.250Z,19.60
2018-10-21T03:04:19.784Z,18.97
2018-10-21T03:06:48.413Z,19.23
2018-10-21T03:09:16.980Z,19.53
2018-10-21T03:11:45.378Z,20.73
2018-10-21T03:14:13.923Z,21.57
2018-10-21T03:16:42.323Z,20.87
2018-10-21T03:19:10.642Z,20.63
2018-10-21T03:21:38.987Z,20.70
2018-10-21T03:24:07.331Z,20.17
2018-10-21T03:26:35.709Z,20.50
2018-10-21T03:29:04.047Z,21.80
2018-10-21T03:31:32.409Z,21.33
2018-10-21T03:34:00.944Z,20.17
2018-10-21T03:36:29.182Z,19.00
2018-10-21T03:38:57.590Z,18.50
2018-10-21T03:41:25.945Z,19.67
2018-10-21T03:43:54.259Z,18.77
2018-10-21T03:46:22.584Z,20.30
2018-10-21T03:48:51.183Z,18.60
2018-10-21T03:51:19.544Z,21.47
2018-10-21T03:53:47.991Z,18.10
2018-10-21T03:56:16.326Z,19.77
2018-10-21T03:58:44.735Z,19.37
2018-10-21T04:01:13.131Z,19.63
2018-10-21T04:03:41.468Z,21.03
2018-10-21T04:06:09.865Z,21.00
2018-10-21T04:08:38.379Z,18.63
2018-10-21T04:11:06.794Z,22.40
2018-10-21T04:13:35.225Z,19.40
2018-10-21T04:16:03.720Z,20.20
2018-10-21T04:18:32.058Z,20.47
2018-10-21T04:21:00.515Z,19.50
2018-10-21T04:23:28.956Z,22.00
2018-10-21T04:25:57.374Z,18.87
2018-10-21T04:28:25.770Z,19.17
2018-10-21T04:30:54.300Z,17.67
2018-10-21T04:33:53.090Z,18.97
2018-10-21T04:36:30.207Z,18.40
2018-10-21T04:40:08.272Z,19.30
2018-10-21T04:42:36.730Z,18.97
2018-10-21T04:45:05.545Z,17.90
2018-10-21T04:47:33.937Z,18.70
2018-10-21T04:50:02.280Z,18.10
2018-10-21T04:52:31.481Z,16.53
2018-10-21T04:55:06.437Z,17.33
2018-10-21T04:57:35.585Z,16.43
2018-10-21T05:00:04.072Z,15.63
2018-10-21T05:02:32.530Z,16.13
2018-10-21T05:05:01.021Z,16.57
2018-10-21T05:07:29.431Z,16.37
2018-10-21T05:09:57.811Z,18.60
2018-10-21T05:12:32.453Z,16.97
2018-10-21T05:15:00.810Z,16.80
2018-10-21T05:17:33.085Z,16.00
2018-10-21T05:20:01.454Z,15.70
2018-10-21T05:22:29.793Z,16.30
2018-10-21T05:24:58.190Z,15.07
2018-10-21T05:27:26.549Z,16.40
2018-10-21T05:29:54.975Z,15.80
2018-10-21T05:32:23.409Z,15.33
2018-10-21T05:34:51.765Z,16.23
2018-10-21T05:37:20.143Z,15.40
2018-10-21T05:39:48.548Z,16.57
2018-10-21T05:42:17.187Z,16.63
2018-10-21T05:44:45.625Z,14.77
2018-10-21T05:47:14.152Z,15.50
2018-10-21T05:49:42.419Z,14.90
2018-10-21T05:52:10.876Z,15.97
2018-10-21T05:54:41.160Z,15.63
2018-10-21T05:57:09.713Z,16.70
2018-10-21T05:59:38.146Z,15.13
2018-10-21T06:02:06.578Z,16.67
2018-10-21T06:04:35.022Z,16.07
2018-10-21T06:07:03.370Z,16.20
2018-10-21T06:09:31.797Z,16.90
2018-10-21T06:12:00.238Z,15.63
2018-10-21T06:14:28.634Z,16.40
2018-10-21T06:17:01.702Z,15.93
2018-10-21T06:21:38.430Z,16.57
2018-10-21T06:24:06.862Z,15.20
2018-10-21T06:26:35.288Z,15.80
2018-10-21T06:29:03.710Z,18.20
2018-10-21T06:31:32.186Z,15.93
2018-10-21T06:34:00.623Z,15.53
2018-10-21T06:36:29.044Z,15.17
2018-10-21T06:38:57.526Z,16.00
2018-10-21T06:41:25.900Z,17.50
2018-10-21T06:43:54.357Z,16.80
2018-10-21T06:46:22.765Z,17.47
2018-10-21T06:48:51.266Z,15.80
2018-10-21T06:51:19.641Z,17.23
2018-10-21T06:53:48.130Z,15.60
2018-10-21T06:56:16.676Z,16.83
2018-10-21T06:58:45.096Z,17.10
2018-10-21T07:01:13.458Z,17.13
2018-10-21T07:03:41.856Z,16.60
2018-10-21T07:06:13.206Z,17.33
2018-10-21T07:08:41.855Z,19.83
2018-10-21T07:11:10.264Z,19.77
2018-10-21T07:13:38.685Z,19.40
2018-10-21T07:16:07.585Z,18.87
2018-10-21T07:18:35.965Z,20.47
2018-10-21T07:21:04.446Z,19.13
2018-10-21T07:23:32.863Z,17.70
2018-10-21T07:26:01.707Z,17.87
2018-10-21T07:28:30.153Z,18.33
2018-10-21T07:30:58.790Z,18.97
2018-10-21T07:33:27.319Z,17.73
2018-10-21T07:35:55.728Z,17.10
2018-10-21T07:38:24.220Z,17.40
2018-10-21T07:40:52.712Z,17.10
2018-10-21T07:43:21.082Z,15.67
2018-10-21T07:45:49.542Z,15.60
2018-10-21T07:48:18.876Z,15.40
2018-10-21T07:50:47.242Z,18.03
2018-10-21T07:53:15.754Z,16.13
2018-10-21T07:55:44.266Z,13.80
2018-10-21T07:58:12.825Z,15.80
2018-10-21T08:00:41.191Z,14.40
2018-10-21T08:03:09.736Z,15.70
2018-10-21T08:05:49.323Z,14.83
2018-10-21T08:08:25.943Z,17.23
2018-10-21T08:10:54.325Z,14.93
2018-10-21T08:13:24.035Z,14.43
2018-10-21T08:15:52.431Z,13.70
2018-10-21T08:18:20.851Z,14.80
2018-10-21T08:20:50.195Z,13.50
2018-10-21T08:23:19.259Z,13.60
2018-10-21T08:25:49.050Z,13.57
2018-10-21T08:28:17.580Z,13.00
2018-10-21T08:30:45.839Z,12.27
2018-10-21T08:33:14.237Z,12.20
2018-10-21T08:35:42.659Z,11.60
2018-10-21T08:38:11.045Z,11.80
2018-10-21T08:40:39.446Z,10.90
2018-10-21T08:43:07.885Z,11.50
2018-10-21T08:45:36.342Z,10.93
2018-10-21T08:48:04.783Z,9.90
2018-10-21T08:50:33.207Z,9.27
2018-10-21T08:53:01.615Z,9.70
2018-10-21T08:55:30.107Z,9.33
2018-10-21T08:57:58.454Z,9.50
2018-10-21T09:00:26.895Z,8.63
2018-10-21T09:02:55.262Z,7.63
2018-10-21T09:05:23.851Z,9.07
2018-10-21T09:07:52.258Z,8.67
2018-10-21T09:10:20.797Z,8.77
2018-10-21T09:12:49.120Z,8.30
2018-10-21T09:15:18.791Z,8.27
2018-10-21T09:17:47.154Z,7.80
2018-10-21T09:20:16.715Z,7.53
2018-10-21T09:22:45.152Z,7.73
2018-10-21T09:25:14.048Z,7.23
2018-10-21T09:27:43.288Z,7.10
2018-10-21T09:30:13.245Z,7.20
2018-10-21T09:32:41.708Z,6.17
2018-10-21T09:35:12.216Z,6.30
2018-10-21T09:37:41.254Z,6.93
2018-10-21T09:40:11.207Z,6.73
2018-10-21T09:42:39.580Z,6.30
2018-10-21T09:45:09.234Z,6.30
2018-10-21T09:47:37.655Z,5.37
2018-10-21T09:50:06.217Z,6.10
2018-10-21T09:52:34.607Z,5.23
2018-10-21T09:55:03.231Z,6.80
2018-10-21T09:57:31.888Z,6.40
2018-10-21T10:00:00.310Z,5.70
2018-10-21T10:02:34.302Z,5.70
2018-10-21T10:05:02.996Z,5.77
2018-10-21T10:10:15.637Z,5.30
2018-10-21T10:12:44.123Z,5.57
2018-10-21T10:15:12.617Z,3.20
2018-10-21T10:17:41.504Z,3.30
2018-10-21T10:20:12.424Z,3.20
2018-10-21T10:22:42.305Z,3.10
2018-10-21T10:25:11.810Z,3.63
2018-10-21T10:27:41.178Z,3.53
2018-10-21T10:30:11.142Z,3.70
2018-10-21T10:32:41.208Z,3.43
2018-10-21T10:35:12.290Z,3.20
2018-10-21T10:37:40.931Z,2.73
2018-10-21T10:40:10.852Z,2.87
2018-10-21T10:42:39.250Z,2.83
2018-10-21T10:45:08.036Z,3.00
2018-10-21T10:47:36.766Z,3.00
2018-10-21T10:50:06.089Z,2.87
2018-10-21T10:52:34.466Z,2.50
2018-10-21T10:55:06.635Z,2.50
2018-10-21T10:57:35.004Z,2.60
2018-10-21T11:00:03.689Z,2.70
2018-10-21T11:02:31.833Z,3.07
2018-10-21T11:05:00.259Z,2.90
2018-10-21T11:07:28.933Z,2.67
2018-10-21T11:09:57.773Z,2.67
2018-10-21T11:12:26.218Z,2.70
2018-10-21T11:14:54.645Z,3.93
2018-10-21T11:17:23.104Z,2.50
2018-10-21T11:19:51.626Z,2.73
2018-10-21T11:22:20.148Z,3.10
2018-10-21T11:24:59.651Z,3.37
2018-10-21T11:27:34.663Z,2.60
2018-10-21T11:30:03.123Z,2.27
2018-10-21T11:32:31.715Z,2.20
2018-10-21T11:35:00.699Z,2.80
2018-10-21T11:37:29.746Z,2.10
2018-10-21T11:39:58.232Z,2.23
2018-10-21T11:42:26.660Z,3.20
2018-10-21T11:44:55.136Z,2.37
2018-10-21T11:47:23.718Z,2.37
2018-10-21T11:49:52.252Z,2.40
2018-10-21T11:52:20.777Z,2.27
2018-10-21T11:54:49.081Z,2.20
2018-10-21T11:57:17.644Z,2.83
2018-10-21T11:59:46.107Z,4.13
2018-10-21T12:02:14.528Z,2.90
2018-10-21T12:04:42.937Z,3.50
2018-10-21T12:07:11.393Z,3.20
2018-10-21T12:09:39.805Z,3.43
2018-10-21T12:12:08.460Z,3.37
2018-10-21T12:14:37.160Z,3.90
2018-10-21T12:17:05.757Z,4.80
2018-10-21T12:19:34.349Z,4.77
2018-10-21T12:22:02.790Z,71.90
2018-10-21T12:24:31.197Z,4.50
2018-10-21T12:26:59.593Z,4.90
2018-10-21T12:29:28.010Z,2.80
2018-10-21T12:31:56.404Z,3.27
2018-10-21T12:34:24.837Z,3.10
2018-10-21T12:36:53.270Z,2.73
2018-10-21T12:39:21.739Z,3.10
2018-10-21T12:41:50.317Z,3.10
2018-10-21T12:44:18.720Z,4.00
2018-10-21T12:46:47.131Z,3.20
2018-10-21T12:49:15.551Z,3.30
2018-10-21T12:51:43.914Z,3.20
2018-10-21T12:54:12.407Z,3.20
2018-10-21T12:56:40.926Z,3.20
2018-10-21T12:59:09.518Z,3.80
2018-10-21T13:01:37.944Z,3.83
2018-10-21T13:04:06.368Z,3.20
2018-10-21T13:06:34.752Z,3.40
2018-10-21T13:09:03.257Z,3.50
2018-10-21T13:11:31.650Z,4.30
2018-10-21T13:14:00.042Z,3.67
2018-10-21T13:16:28.460Z,4.70
2018-10-21T13:18:56.919Z,4.97
2018-10-21T13:21:25.322Z,6.10
2018-10-21T13:23:53.811Z,3.93
2018-10-21T13:26:22.184Z,4.23
2018-10-21T13:28:50.628Z,5.33
2018-10-21T13:31:19.946Z,4.53
2018-10-21T13:33:48.281Z,4.07
2018-10-21T13:36:16.690Z,3.70
2018-10-21T13:38:45.716Z,3.60
2018-10-21T13:41:14.198Z,3.73
2018-10-21T13:43:42.658Z,3.93
2018-10-21T13:46:11.197Z,3.80
2018-10-21T13:48:39.565Z,3.40
2018-10-21T13:51:07.948Z,3.07
2018-10-21T13:53:36.455Z,2.60
2018-10-21T13:56:04.909Z,2.90
2018-10-21T13:58:33.346Z,2.73
2018-10-21T14:01:01.900Z,5.40
2018-10-21T14:03:30.199Z,2.53
2018-10-21T14:05:58.646Z,3.03
2018-10-21T14:08:27.001Z,3.20
2018-10-21T14:10:55.359Z,2.50
2018-10-21T14:13:23.727Z,3.37
2018-10-21T14:15:52.216Z,3.80
2018-10-21T14:18:20.670Z,2.57
2018-10-21T14:20:49.061Z,2.50
2018-10-21T14:23:17.473Z,2.30
2018-10-21T14:25:45.839Z,2.63
2018-10-21T14:28:14.232Z,2.77
2018-10-21T14:30:42.576Z,3.13
2018-10-21T14:33:11.909Z,2.53
2018-10-21T14:35:40.227Z,2.60
2018-10-21T14:38:08.612Z,2.70
2018-10-21T14:40:37.466Z,2.10
2018-10-21T14:43:05.851Z,2.20
2018-10-21T14:45:34.296Z,4.10
2018-10-21T14:48:02.756Z,2.40
2018-10-21T14:50:31.126Z,1.90
2018-10-21T14:52:59.495Z,2.20
2018-10-21T14:55:27.921Z,2.60
2018-10-21T14:57:56.298Z,2.63
2018-10-21T15:00:24.737Z,2.10
2018-10-21T15:02:53.062Z,2.20
2018-10-21T15:05:21.428Z,2.13
2018-10-21T15:07:49.891Z,3.03
2018-10-21T15:10:18.350Z,2.27
2018-10-21T15:12:46.719Z,2.53
2018-10-21T15:15:15.036Z,2.70
2018-10-21T15:17:45.449Z,2.30
2018-10-21T15:20:14.216Z,2.90
2018-10-21T15:22:43.032Z,3.00
2018-10-21T15:25:12.165Z,2.50
2018-10-21T15:27:41.090Z,3.20
2018-10-21T15:30:10.304Z,3.07
2018-10-21T15:32:39.062Z,2.60
2018-10-21T15:35:07.479Z,3.30
2018-10-21T15:37:35.856Z,3.17
2018-10-21T15:40:04.266Z,2.60
2018-10-21T15:42:32.624Z,2.97
2018-10-21T15:45:01.084Z,2.67
2018-10-21T15:47:29.537Z,3.30
2018-10-21T15:49:57.978Z,2.67
2018-10-21T15:52:26.534Z,2.37
2018-10-21T15:54:54.870Z,2.97
2018-10-21T15:57:23.236Z,2.63
2018-10-21T15:59:51.571Z,2.80
2018-10-21T16:02:19.990Z,2.60
2018-10-21T16:04:48.258Z,2.80
2018-10-21T16:07:16.651Z,3.10
2018-10-21T16:09:45.223Z,3.13
2018-10-21T16:12:13.707Z,4.30
2018-10-21T16:14:42.144Z,3.23
2018-10-21T16:17:13.176Z,3.20
2018-10-21T16:19:41.600Z,3.40
2018-10-21T16:22:10.597Z,3.80
2018-10-21T16:24:39.030Z,3.53
2018-10-21T16:27:07.422Z,4.27
2018-10-21T16:29:36.960Z,4.10
2018-10-21T16:32:13.650Z,3.70
2018-10-21T16:34:41.905Z,4.03
2018-10-21T16:37:10.399Z,4.00
2018-10-21T16:39:38.844Z,3.67
2018-10-21T16:42:07.170Z,4.50
2018-10-21T16:44:35.520Z,4.33
2018-10-21T16:47:03.851Z,4.80
2018-10-21T16:49:32.143Z,4.93
2018-10-21T16:52:00.574Z,3.80
2018-10-21T16:54:28.943Z,4.13
2018-10-21T16:56:57.283Z,4.57
2018-10-21T16:59:25.729Z,4.27
2018-10-21T17:01:54.009Z,4.30
2018-10-21T17:04:22.505Z,3.60
2018-10-21T17:06:50.825Z,3.90
2018-10-21T17:09:19.367Z,4.10
2018-10-21T17:11:47.605Z,3.83
2018-10-21T17:14:15.928Z,4.57
2018-10-21T17:16:44.331Z,5.47
2018-10-21T17:19:12.825Z,4.87
2018-10-21T17:21:41.056Z,5.60
2018-10-21T17:24:09.506Z,5.67
2018-10-21T17:26:37.877Z,5.47
2018-10-21T17:29:06.293Z,5.10
2018-10-21T17:31:34.651Z,5.53
2018-10-21T17:34:03.035Z,6.67
2018-10-21T17:36:31.441Z,8.17
2018-10-21T17:38:59.850Z,6.70
2018-10-21T17:41:28.181Z,7.00
2018-10-21T17:43:56.488Z,10.13
2018-10-21T17:46:24.876Z,7.40
2018-10-21T17:48:54.189Z,6.20
2018-10-21T17:51:22.469Z,7.20
2018-10-21T17:53:50.842Z,8.53
2018-10-21T17:56:19.157Z,6.10
2018-10-21T17:58:47.506Z,6.90
2018-10-21T18:01:15.911Z,6.73
2018-10-21T18:03:44.281Z,7.10
2018-10-21T18:06:12.632Z,7.30
2018-10-21T18:08:40.926Z,6.87
2018-10-21T18:11:09.310Z,6.50
2018-10-21T18:13:37.645Z,6.53
2018-10-21T18:16:06.068Z,6.63
2018-10-21T18:18:34.368Z,7.97
2018-10-21T18:21:02.713Z,5.87
2018-10-21T18:23:31.106Z,5.90
2018-10-21T18:25:59.420Z,6.13
2018-10-21T18:28:27.722Z,5.70
2018-10-21T18:30:56.123Z,5.80
2018-10-21T18:33:24.483Z,5.00
2018-10-21T18:35:52.779Z,5.77
2018-10-21T18:38:21.157Z,5.20
2018-10-21T18:40:49.629Z,5.13
2018-10-21T18:43:17.839Z,5.40
2018-10-21T18:45:46.170Z,5.27
2018-10-21T18:48:14.516Z,5.20
2018-10-21T18:50:42.907Z,6.63
2018-10-21T18:53:11.256Z,5.77
2018-10-21T18:55:39.589Z,6.17
2018-10-21T18:58:07.921Z,5.60
2018-10-21T19:00:36.264Z,5.90
2018-10-21T19:03:04.633Z,5.97
2018-10-21T19:05:32.961Z,6.40
2018-10-21T19:08:01.290Z,6.40
2018-10-21T19:10:29.674Z,6.00
2018-10-21T19:13:00.050Z,6.27
2018-10-21T19:15:26.372Z,6.60
2018-10-21T19:17:54.730Z,6.53
2018-10-21T19:20:23.052Z,6.20
2018-10-21T19:22:51.418Z,6.50
2018-10-21T19:25:19.989Z,6.50
2018-10-21T19:27:48.193Z,5.97
2018-10-21T19:30:16.574Z,6.07
2018-10-21T19:32:44.917Z,6.87
2018-10-21T19:35:14.213Z,7.20
2018-10-21T19:37:42.557Z,5.90
2018-10-21T19:40:13.216Z,7.00
2018-10-21T19:42:42.020Z,7.20
2018-10-21T19:45:11.252Z,7.27
2018-10-21T19:47:39.937Z,7.43
2018-10-21T19:50:09.816Z,8.00
2018-10-21T19:52:38.499Z,6.63
2018-10-21T19:55:06.904Z,7.57
2018-10-21T19:57:35.248Z,7.23
2018-10-21T20:00:04.168Z,7.77
2018-10-21T20:02:32.527Z,6.13
2018-10-21T20:05:00.847Z,5.90
2018-10-21T20:07:29.238Z,6.53
2018-10-21T20:09:57.598Z,6.43
2018-10-21T20:12:25.886Z,6.90
2018-10-21T20:14:54.440Z,6.20
2018-10-21T20:17:23.097Z,6.63
2018-10-21T20:19:51.412Z,6.23
2018-10-21T20:22:19.706Z,6.33
2018-10-21T20:24:48.033Z,7.00
2018-10-21T20:27:16.394Z,6.40
2018-10-21T20:29:45.716Z,7.10
2018-10-21T20:32:14.121Z,7.30
2018-10-21T20:34:42.407Z,7.97
2018-10-21T20:37:10.727Z,7.83
2018-10-21T20:39:39.086Z,7.77
2018-10-21T20:42:07.516Z,7.47
2018-10-21T20:44:35.756Z,6.87
2018-10-21T20:47:04.097Z,7.17
2018-10-21T20:49:32.414Z,6.77
2018-10-21T20:52:00.838Z,7.03
2018-10-21T20:54:34.408Z,7.43
2018-10-21T20:57:07.944Z,6.30
2018-10-21T20:59:36.893Z,7.03
2018-10-21T21:02:05.678Z,6.30
2018-10-21T21:04:34.092Z,5.80
2018-10-21T21:07:02.430Z,7.40
2018-10-21T21:09:30.747Z,7.20
2018-10-21T21:11:59.092Z,7.07
2018-10-21T21:14:27.427Z,6.67
2018-10-21T21:16:55.803Z,6.47
2018-10-21T21:19:24.183Z,5.83
2018-10-21T21:21:52.646Z,7.30
2018-10-21T21:24:20.928Z,8.43
2018-10-21T21:26:49.593Z,6.20
2018-10-21T21:29:18.019Z,7.10
2018-10-21T21:31:46.737Z,7.53
2018-10-21T21:34:15.588Z,6.50
2018-10-21T21:36:43.837Z,7.53
2018-10-21T21:39:13.504Z,8.10
2018-10-21T21:41:43.103Z,7.63
2018-10-21T21:44:11.514Z,7.37
2018-10-21T21:46:40.662Z,7.93
2018-10-21T21:49:10.235Z,8.70
2018-10-21T21:51:39.054Z,8.40
2018-10-21T21:54:08.281Z,7.00
2018-10-21T21:56:36.610Z,8.40
2018-10-21T21:59:05.140Z,7.40
2018-10-21T22:01:33.514Z,8.67
2018-10-21T22:04:01.964Z,8.10
2018-10-21T22:06:30.229Z,8.43
2018-10-21T22:08:58.842Z,9.40
2018-10-21T22:11:27.169Z,9.50
2018-10-21T22:13:55.495Z,9.57
2018-10-21T22:16:23.956Z,8.80
2018-10-21T22:18:52.300Z,8.60
2018-10-21T22:21:20.611Z,9.07
2018-10-21T22:23:49.035Z,9.67
2018-10-21T22:26:17.432Z,7.93
2018-10-21T22:28:45.757Z,8.77
2018-10-21T22:31:14.069Z,8.47
2018-10-21T22:33:42.386Z,9.47
2018-10-21T22:36:10.845Z,9.40
2018-10-21T22:38:39.141Z,9.80
2018-10-21T22:41:07.543Z,8.10
2018-10-21T22:43:35.937Z,7.97
2018-10-21T22:46:04.370Z,8.50
2018-10-21T22:48:32.648Z,8.30
2018-10-21T22:51:01.027Z,7.43
2018-10-21T22:53:29.392Z,8.47
2018-10-21T22:55:57.674Z,7.77
2018-10-21T22:58:26.021Z,8.30
2018-10-21T23:00:54.339Z,8.10
2018-10-21T23:03:22.627Z,8.97
2018-10-21T23:05:50.989Z,7.60
2018-10-21T23:08:19.306Z,8.67
2018-10-21T23:10:47.621Z,8.67
2018-10-21T23:13:16.021Z,8.33
2018-10-21T23:15:44.341Z,9.40
2018-10-21T23:18:12.689Z,8.57
2018-10-21T23:20:40.925Z,9.43
2018-10-21T23:23:09.261Z,8.90
2018-10-21T23:25:37.571Z,10.10
2018-10-21T23:28:05.982Z,7.97
2018-10-21T23:30:34.285Z,8.40
2018-10-21T23:33:03.847Z,8.40
2018-10-21T23:35:32.153Z,9.33
2018-10-21T23:38:00.454Z,9.00
2018-10-21T23:40:28.874Z,9.23
2018-10-21T23:42:57.400Z,9.37
2018-10-21T23:45:25.804Z,10.53
2018-10-21T23:47:54.153Z,9.70
2018-10-21T23:50:22.394Z,10.00
2018-10-21T23:52:50.704Z,9.13
2018-10-21T23:55:19.027Z,10.40
2018-10-21T23:57:47.334Z,10.00
